sensor_id;sensor_type;location;lat;lon;timestamp;temperature;humidity
59618;DHT22;45437;51.458;-2.568;2022-07-23T00:00:26;20.00;72.20
59618;DHT22;45437;51.458;-2.568;2022-07-23T00:01:27;20.00;72.30
59618;DHT22;45437;51.458;-2.568;2022-07-23T00:02:29;20.00;72.50
59618;DHT22;45437;51.458;-2.568;2022-07-23T00:03:30;20.00;72.60
59618;DHT22;45437;51.458;-2.568;2022-07-23T00:04:30;20.00;72.50
59618;DHT22;45437;51.458;-2.568;2022-07-23T00:05:31;20.00;72.50
59618;DHT22;45437;51.458;-2.568;2022-07-23T00:06:32;20.00;72.50
59618;DHT22;45437;51.458;-2.568;2022-07-23T00:07:33;20.00;72.30
59618;DHT22;45437;51.458;-2.568;2022-07-23T00:08:34;20.00;72.30
59618;DHT22;45437;51.458;-2.568;2022-07-23T00:09:35;20.00;72.30
59618;DHT22;45437;51.458;-2.568;2022-07-23T00:10:35;20.00;72.40
59618;DHT22;45437;51.458;-2.568;2022-07-23T00:11:36;20.00;72.40
59618;DHT22;45437;51.458;-2.568;2022-07-23T00:12:38;20.00;72.30
59618;DHT22;45437;51.458;-2.568;2022-07-23T00:13:39;19.90;72.20
59618;DHT22;45437;51.458;-2.568;2022-07-23T00:14:39;19.90;72.30
59618;DHT22;45437;51.458;-2.568;2022-07-23T00:15:40;20.00;72.30
59618;DHT22;45437;51.458;-2.568;2022-07-23T00:16:41;19.90;72.40
59618;DHT22;45437;51.458;-2.568;2022-07-23T00:17:42;20.00;72.50
59618;DHT22;45437;51.458;-2.568;2022-07-23T00:18:42;19.90;72.20
59618;DHT22;45437;51.458;-2.568;2022-07-23T00:19:43;19.90;72.10
59618;DHT22;45437;51.458;-2.568;2022-07-23T00:20:44;19.90;72.20
59618;DHT22;45437;51.458;-2.568;2022-07-23T00:21:45;19.90;72.10
59618;DHT22;45437;51.458;-2.568;2022-07-23T00:22:55;19.90;72.10
59618;DHT22;45437;51.458;-2.568;2022-07-23T00:23:56;19.90;72.10
59618;DHT22;45437;51.458;-2.568;2022-07-23T00:24:56;19.90;72.10
59618;DHT22;45437;51.458;-2.568;2022-07-23T00:25:57;19.90;72.20
59618;DHT22;45437;51.458;-2.568;2022-07-23T00:26:58;19.90;72.10
59618;DHT22;45437;51.458;-2.568;2022-07-23T00:28:00;19.90;72.10
59618;DHT22;45437;51.458;-2.568;2022-07-23T00:29:01;19.90;72.00
59618;DHT22;45437;51.458;-2.568;2022-07-23T00:30:03;19.90;72.00
59618;DHT22;45437;51.458;-2.568;2022-07-23T00:31:04;19.90;71.90
59618;DHT22;45437;51.458;-2.568;2022-07-23T00:32:05;19.90;72.00
59618;DHT22;45437;51.458;-2.568;2022-07-23T00:33:07;19.90;71.80
59618;DHT22;45437;51.458;-2.568;2022-07-23T00:34:08;19.90;71.90
59618;DHT22;45437;51.458;-2.568;2022-07-23T00:35:08;19.90;71.80
59618;DHT22;45437;51.458;-2.568;2022-07-23T00:36:09;19.90;72.00
59618;DHT22;45437;51.458;-2.568;2022-07-23T00:37:10;19.80;72.00
59618;DHT22;45437;51.458;-2.568;2022-07-23T00:38:11;19.80;72.00
59618;DHT22;45437;51.458;-2.568;2022-07-23T00:39:12;19.90;72.10
59618;DHT22;45437;51.458;-2.568;2022-07-23T00:40:13;19.80;72.10
59618;DHT22;45437;51.458;-2.568;2022-07-23T00:41:14;19.80;71.80
59618;DHT22;45437;51.458;-2.568;2022-07-23T00:42:15;19.80;71.70
59618;DHT22;45437;51.458;-2.568;2022-07-23T00:43:15;19.80;71.90
59618;DHT22;45437;51.458;-2.568;2022-07-23T00:44:26;19.80;72.10
59618;DHT22;45437;51.458;-2.568;2022-07-23T00:45:28;19.70;71.90
59618;DHT22;45437;51.458;-2.568;2022-07-23T00:46:29;19.70;71.80
59618;DHT22;45437;51.458;-2.568;2022-07-23T00:47:29;19.70;71.60
59618;DHT22;45437;51.458;-2.568;2022-07-23T00:48:31;19.70;71.60
59618;DHT22;45437;51.458;-2.568;2022-07-23T00:49:32;19.70;71.60
59618;DHT22;45437;51.458;-2.568;2022-07-23T00:50:33;19.70;71.60
59618;DHT22;45437;51.458;-2.568;2022-07-23T00:51:34;19.70;71.80
59618;DHT22;45437;51.458;-2.568;2022-07-23T00:52:35;19.70;71.80
59618;DHT22;45437;51.458;-2.568;2022-07-23T00:53:37;19.70;71.70
59618;DHT22;45437;51.458;-2.568;2022-07-23T00:54:38;19.70;71.80
59618;DHT22;45437;51.458;-2.568;2022-07-23T00:55:40;19.70;71.70
59618;DHT22;45437;51.458;-2.568;2022-07-23T00:56:45;19.70;71.70
59618;DHT22;45437;51.458;-2.568;2022-07-23T00:57:47;19.60;71.60
59618;DHT22;45437;51.458;-2.568;2022-07-23T00:58:48;19.60;71.30
59618;DHT22;45437;51.458;-2.568;2022-07-23T00:59:49;19.60;71.50
59618;DHT22;45437;51.458;-2.568;2022-07-23T01:00:50;19.60;71.60
59618;DHT22;45437;51.458;-2.568;2022-07-23T01:01:50;19.60;71.50
59618;DHT22;45437;51.458;-2.568;2022-07-23T01:02:51;19.60;71.50
59618;DHT22;45437;51.458;-2.568;2022-07-23T01:03:52;19.60;71.20
59618;DHT22;45437;51.458;-2.568;2022-07-23T01:04:53;19.60;71.30
59618;DHT22;45437;51.458;-2.568;2022-07-23T01:05:54;19.60;71.40
59618;DHT22;45437;51.458;-2.568;2022-07-23T01:06:55;19.60;71.40
59618;DHT22;45437;51.458;-2.568;2022-07-23T01:07:57;19.60;71.20
59618;DHT22;45437;51.458;-2.568;2022-07-23T01:08:58;19.60;71.30
59618;DHT22;45437;51.458;-2.568;2022-07-23T01:09:59;19.60;71.40
59618;DHT22;45437;51.458;-2.568;2022-07-23T01:11:00;19.50;71.20
59618;DHT22;45437;51.458;-2.568;2022-07-23T01:12:01;19.50;71.40
59618;DHT22;45437;51.458;-2.568;2022-07-23T01:13:08;19.50;70.80
59618;DHT22;45437;51.458;-2.568;2022-07-23T01:14:13;19.50;70.70
59618;DHT22;45437;51.458;-2.568;2022-07-23T01:15:15;19.50;71.00
59618;DHT22;45437;51.458;-2.568;2022-07-23T01:16:16;19.50;70.90
59618;DHT22;45437;51.458;-2.568;2022-07-23T01:17:17;19.50;70.80
59618;DHT22;45437;51.458;-2.568;2022-07-23T01:18:18;19.50;70.70
59618;DHT22;45437;51.458;-2.568;2022-07-23T01:19:19;19.50;70.50
59618;DHT22;45437;51.458;-2.568;2022-07-23T01:20:20;19.50;70.70
59618;DHT22;45437;51.458;-2.568;2022-07-23T01:21:21;19.50;70.70
59618;DHT22;45437;51.458;-2.568;2022-07-23T01:22:28;19.50;70.80
59618;DHT22;45437;51.458;-2.568;2022-07-23T01:23:29;19.50;70.80
59618;DHT22;45437;51.458;-2.568;2022-07-23T01:24:32;19.50;71.10
59618;DHT22;45437;51.458;-2.568;2022-07-23T01:25:37;19.50;70.80
59618;DHT22;45437;51.458;-2.568;2022-07-23T01:26:43;19.50;70.80
59618;DHT22;45437;51.458;-2.568;2022-07-23T01:27:44;19.50;70.80
59618;DHT22;45437;51.458;-2.568;2022-07-23T01:28:45;19.50;70.80
59618;DHT22;45437;51.458;-2.568;2022-07-23T01:29:46;19.50;70.80
59618;DHT22;45437;51.458;-2.568;2022-07-23T01:30:51;19.40;70.80
59618;DHT22;45437;51.458;-2.568;2022-07-23T01:31:52;19.40;70.70
59618;DHT22;45437;51.458;-2.568;2022-07-23T01:32:54;19.40;70.80
59618;DHT22;45437;51.458;-2.568;2022-07-23T01:33:55;19.40;70.90
59618;DHT22;45437;51.458;-2.568;2022-07-23T01:34:56;19.40;70.80
59618;DHT22;45437;51.458;-2.568;2022-07-23T01:35:57;19.40;70.80
59618;DHT22;45437;51.458;-2.568;2022-07-23T01:36:59;19.40;70.80
59618;DHT22;45437;51.458;-2.568;2022-07-23T01:38:00;19.40;70.90
59618;DHT22;45437;51.458;-2.568;2022-07-23T01:39:03;19.30;70.70
59618;DHT22;45437;51.458;-2.568;2022-07-23T01:40:05;19.40;70.90
59618;DHT22;45437;51.458;-2.568;2022-07-23T01:41:06;19.30;70.40
59618;DHT22;45437;51.458;-2.568;2022-07-23T01:42:07;19.30;70.50
59618;DHT22;45437;51.458;-2.568;2022-07-23T01:43:08;19.30;70.40
59618;DHT22;45437;51.458;-2.568;2022-07-23T01:44:10;19.30;70.40
59618;DHT22;45437;51.458;-2.568;2022-07-23T01:45:14;19.30;70.30
59618;DHT22;45437;51.458;-2.568;2022-07-23T01:46:20;19.30;70.10
59618;DHT22;45437;51.458;-2.568;2022-07-23T01:47:23;19.30;70.20
59618;DHT22;45437;51.458;-2.568;2022-07-23T01:48:27;19.30;70.30
59618;DHT22;45437;51.458;-2.568;2022-07-23T01:49:57;19.30;70.40
59618;DHT22;45437;51.458;-2.568;2022-07-23T01:51:16;19.30;70.30
59618;DHT22;45437;51.458;-2.568;2022-07-23T01:52:18;19.30;70.50
59618;DHT22;45437;51.458;-2.568;2022-07-23T01:53:23;19.30;70.30
59618;DHT22;45437;51.458;-2.568;2022-07-23T01:54:24;19.30;70.10
59618;DHT22;45437;51.458;-2.568;2022-07-23T01:55:25;19.30;70.30
59618;DHT22;45437;51.458;-2.568;2022-07-23T01:56:26;19.20;70.30
59618;DHT22;45437;51.458;-2.568;2022-07-23T01:57:27;19.30;70.50
59618;DHT22;45437;51.458;-2.568;2022-07-23T01:58:28;19.30;70.60
59618;DHT22;45437;51.458;-2.568;2022-07-23T01:59:29;19.30;70.30
59618;DHT22;45437;51.458;-2.568;2022-07-23T02:00:30;19.30;70.30
59618;DHT22;45437;51.458;-2.568;2022-07-23T02:01:31;19.20;70.10
59618;DHT22;45437;51.458;-2.568;2022-07-23T02:02:32;19.30;70.30
59618;DHT22;45437;51.458;-2.568;2022-07-23T02:03:33;19.20;70.30
59618;DHT22;45437;51.458;-2.568;2022-07-23T02:04:33;19.30;70.50
59618;DHT22;45437;51.458;-2.568;2022-07-23T02:05:37;19.30;70.50
59618;DHT22;45437;51.458;-2.568;2022-07-23T02:06:38;19.20;70.30
59618;DHT22;45437;51.458;-2.568;2022-07-23T02:07:38;19.20;70.20
59618;DHT22;45437;51.458;-2.568;2022-07-23T02:08:39;19.20;70.20
59618;DHT22;45437;51.458;-2.568;2022-07-23T02:09:40;19.20;70.20
59618;DHT22;45437;51.458;-2.568;2022-07-23T02:10:41;19.20;70.10
59618;DHT22;45437;51.458;-2.568;2022-07-23T02:11:43;19.20;70.10
59618;DHT22;45437;51.458;-2.568;2022-07-23T02:12:43;19.20;70.10
59618;DHT22;45437;51.458;-2.568;2022-07-23T02:13:44;19.20;70.20
59618;DHT22;45437;51.458;-2.568;2022-07-23T02:14:45;19.20;70.20
59618;DHT22;45437;51.458;-2.568;2022-07-23T02:15:47;19.20;69.80
59618;DHT22;45437;51.458;-2.568;2022-07-23T02:16:48;19.20;69.70
59618;DHT22;45437;51.458;-2.568;2022-07-23T02:17:49;19.20;70.00
59618;DHT22;45437;51.458;-2.568;2022-07-23T02:18:50;19.20;69.90
59618;DHT22;45437;51.458;-2.568;2022-07-23T02:19:50;19.20;69.90
59618;DHT22;45437;51.458;-2.568;2022-07-23T02:20:51;19.20;70.10
59618;DHT22;45437;51.458;-2.568;2022-07-23T02:21:52;19.20;70.00
59618;DHT22;45437;51.458;-2.568;2022-07-23T02:22:54;19.20;70.00
59618;DHT22;45437;51.458;-2.568;2022-07-23T02:23:56;19.20;70.00
59618;DHT22;45437;51.458;-2.568;2022-07-23T02:24:57;19.20;70.00
59618;DHT22;45437;51.458;-2.568;2022-07-23T02:25:57;19.20;70.00
59618;DHT22;45437;51.458;-2.568;2022-07-23T02:26:58;19.20;69.80
59618;DHT22;45437;51.458;-2.568;2022-07-23T02:28:00;19.20;69.90
59618;DHT22;45437;51.458;-2.568;2022-07-23T02:29:02;19.20;70.20
59618;DHT22;45437;51.458;-2.568;2022-07-23T02:30:04;19.10;70.10
59618;DHT22;45437;51.458;-2.568;2022-07-23T02:31:05;19.10;70.20
59618;DHT22;45437;51.458;-2.568;2022-07-23T02:32:08;19.10;70.20
59618;DHT22;45437;51.458;-2.568;2022-07-23T02:33:09;19.10;70.20
59618;DHT22;45437;51.458;-2.568;2022-07-23T02:34:10;19.10;70.30
59618;DHT22;45437;51.458;-2.568;2022-07-23T02:35:12;19.10;70.40
59618;DHT22;45437;51.458;-2.568;2022-07-23T02:36:13;19.10;70.40
59618;DHT22;45437;51.458;-2.568;2022-07-23T02:37:15;19.10;70.40
59618;DHT22;45437;51.458;-2.568;2022-07-23T02:38:16;19.10;70.40
59618;DHT22;45437;51.458;-2.568;2022-07-23T02:39:17;19.10;70.40
59618;DHT22;45437;51.458;-2.568;2022-07-23T02:40:18;19.10;70.40
59618;DHT22;45437;51.458;-2.568;2022-07-23T02:41:19;19.10;70.40
59618;DHT22;45437;51.458;-2.568;2022-07-23T02:42:20;19.10;70.50
59618;DHT22;45437;51.458;-2.568;2022-07-23T02:43:22;19.10;70.60
59618;DHT22;45437;51.458;-2.568;2022-07-23T02:44:23;19.10;70.60
59618;DHT22;45437;51.458;-2.568;2022-07-23T02:45:26;19.10;70.40
59618;DHT22;45437;51.458;-2.568;2022-07-23T02:46:28;19.00;70.50
59618;DHT22;45437;51.458;-2.568;2022-07-23T02:47:30;19.00;70.40
59618;DHT22;45437;51.458;-2.568;2022-07-23T02:48:33;19.00;71.00
59618;DHT22;45437;51.458;-2.568;2022-07-23T02:49:34;19.00;70.30
59618;DHT22;45437;51.458;-2.568;2022-07-23T02:50:38;19.00;70.40
59618;DHT22;45437;51.458;-2.568;2022-07-23T02:51:39;19.00;70.40
59618;DHT22;45437;51.458;-2.568;2022-07-23T02:52:41;19.00;70.30
59618;DHT22;45437;51.458;-2.568;2022-07-23T02:53:42;19.00;70.40
59618;DHT22;45437;51.458;-2.568;2022-07-23T02:54:43;19.00;70.30
59618;DHT22;45437;51.458;-2.568;2022-07-23T02:55:47;19.00;70.00
59618;DHT22;45437;51.458;-2.568;2022-07-23T02:56:48;19.00;70.40
59618;DHT22;45437;51.458;-2.568;2022-07-23T02:57:51;18.90;70.30
59618;DHT22;45437;51.458;-2.568;2022-07-23T02:58:52;19.00;70.30
59618;DHT22;45437;51.458;-2.568;2022-07-23T02:59:53;19.00;70.30
59618;DHT22;45437;51.458;-2.568;2022-07-23T03:00:53;18.90;70.30
59618;DHT22;45437;51.458;-2.568;2022-07-23T03:01:54;18.90;70.20
59618;DHT22;45437;51.458;-2.568;2022-07-23T03:02:55;19.00;70.30
59618;DHT22;45437;51.458;-2.568;2022-07-23T03:03:56;18.90;70.20
59618;DHT22;45437;51.458;-2.568;2022-07-23T03:04:57;18.90;70.20
59618;DHT22;45437;51.458;-2.568;2022-07-23T03:05:58;18.90;70.20
59618;DHT22;45437;51.458;-2.568;2022-07-23T03:06:58;18.90;69.90
59618;DHT22;45437;51.458;-2.568;2022-07-23T03:08:00;18.90;69.80
59618;DHT22;45437;51.458;-2.568;2022-07-23T03:09:01;18.90;70.10
59618;DHT22;45437;51.458;-2.568;2022-07-23T03:10:03;18.90;70.20
59618;DHT22;45437;51.458;-2.568;2022-07-23T03:11:03;18.90;70.20
59618;DHT22;45437;51.458;-2.568;2022-07-23T03:12:05;18.90;70.10
59618;DHT22;45437;51.458;-2.568;2022-07-23T03:13:05;18.90;70.10
59618;DHT22;45437;51.458;-2.568;2022-07-23T03:14:06;18.90;70.20
59618;DHT22;45437;51.458;-2.568;2022-07-23T03:15:10;18.90;70.20
59618;DHT22;45437;51.458;-2.568;2022-07-23T03:16:11;18.90;70.10
59618;DHT22;45437;51.458;-2.568;2022-07-23T03:17:12;18.90;70.10
59618;DHT22;45437;51.458;-2.568;2022-07-23T03:18:12;18.90;70.10
59618;DHT22;45437;51.458;-2.568;2022-07-23T03:19:13;18.90;70.10
59618;DHT22;45437;51.458;-2.568;2022-07-23T03:20:15;18.90;70.10
59618;DHT22;45437;51.458;-2.568;2022-07-23T03:21:16;18.90;69.50
59618;DHT22;45437;51.458;-2.568;2022-07-23T03:22:17;18.90;70.00
59618;DHT22;45437;51.458;-2.568;2022-07-23T03:23:18;18.90;70.00
59618;DHT22;45437;51.458;-2.568;2022-07-23T03:24:19;18.90;69.70
59618;DHT22;45437;51.458;-2.568;2022-07-23T03:25:20;18.90;69.90
59618;DHT22;45437;51.458;-2.568;2022-07-23T03:26:21;18.90;70.00
59618;DHT22;45437;51.458;-2.568;2022-07-23T03:27:28;18.90;70.00
59618;DHT22;45437;51.458;-2.568;2022-07-23T03:28:29;18.90;70.00
59618;DHT22;45437;51.458;-2.568;2022-07-23T03:29:31;18.90;69.90
59618;DHT22;45437;51.458;-2.568;2022-07-23T03:30:33;18.80;69.90
59618;DHT22;45437;51.458;-2.568;2022-07-23T03:31:35;18.90;69.90
59618;DHT22;45437;51.458;-2.568;2022-07-23T03:32:36;18.90;70.80
59618;DHT22;45437;51.458;-2.568;2022-07-23T03:33:37;18.80;69.90
59618;DHT22;45437;51.458;-2.568;2022-07-23T03:34:38;18.80;69.80
59618;DHT22;45437;51.458;-2.568;2022-07-23T03:35:39;18.80;69.80
59618;DHT22;45437;51.458;-2.568;2022-07-23T03:36:51;18.90;70.00
59618;DHT22;45437;51.458;-2.568;2022-07-23T03:37:51;18.80;69.70
59618;DHT22;45437;51.458;-2.568;2022-07-23T03:38:53;18.80;69.50
59618;DHT22;45437;51.458;-2.568;2022-07-23T03:39:54;18.80;70.30
59618;DHT22;45437;51.458;-2.568;2022-07-23T03:40:55;18.80;69.60
59618;DHT22;45437;51.458;-2.568;2022-07-23T03:41:56;18.80;69.60
59618;DHT22;45437;51.458;-2.568;2022-07-23T03:42:56;18.80;69.50
59618;DHT22;45437;51.458;-2.568;2022-07-23T03:43:57;18.80;69.40
59618;DHT22;45437;51.458;-2.568;2022-07-23T03:44:58;18.80;69.50
59618;DHT22;45437;51.458;-2.568;2022-07-23T03:45:59;18.80;69.50
59618;DHT22;45437;51.458;-2.568;2022-07-23T03:47:00;18.80;69.60
59618;DHT22;45437;51.458;-2.568;2022-07-23T03:48:01;18.80;69.70
59618;DHT22;45437;51.458;-2.568;2022-07-23T03:49:03;18.80;69.80
59618;DHT22;45437;51.458;-2.568;2022-07-23T03:50:04;18.80;69.70
59618;DHT22;45437;51.458;-2.568;2022-07-23T03:51:06;18.70;69.80
59618;DHT22;45437;51.458;-2.568;2022-07-23T03:52:08;18.70;69.80
59618;DHT22;45437;51.458;-2.568;2022-07-23T03:53:09;18.80;69.70
59618;DHT22;45437;51.458;-2.568;2022-07-23T03:54:10;18.70;69.80
59618;DHT22;45437;51.458;-2.568;2022-07-23T03:55:11;18.80;69.60
59618;DHT22;45437;51.458;-2.568;2022-07-23T03:56:12;18.70;69.60
59618;DHT22;45437;51.458;-2.568;2022-07-23T03:57:12;18.70;69.60
59618;DHT22;45437;51.458;-2.568;2022-07-23T03:58:13;18.70;69.40
59618;DHT22;45437;51.458;-2.568;2022-07-23T03:59:14;18.70;69.50
59618;DHT22;45437;51.458;-2.568;2022-07-23T04:00:15;18.70;69.60
59618;DHT22;45437;51.458;-2.568;2022-07-23T04:01:17;18.70;69.40
59618;DHT22;45437;51.458;-2.568;2022-07-23T04:02:18;18.70;69.40
59618;DHT22;45437;51.458;-2.568;2022-07-23T04:03:18;18.70;69.20
59618;DHT22;45437;51.458;-2.568;2022-07-23T04:04:19;18.70;69.40
59618;DHT22;45437;51.458;-2.568;2022-07-23T04:05:20;18.70;69.40
59618;DHT22;45437;51.458;-2.568;2022-07-23T04:06:25;18.60;69.20
59618;DHT22;45437;51.458;-2.568;2022-07-23T04:07:27;18.60;69.10
59618;DHT22;45437;51.458;-2.568;2022-07-23T04:08:28;18.60;69.30
59618;DHT22;45437;51.458;-2.568;2022-07-23T04:09:30;18.60;69.50
59618;DHT22;45437;51.458;-2.568;2022-07-23T04:10:31;18.60;69.50
59618;DHT22;45437;51.458;-2.568;2022-07-23T04:11:32;18.60;69.40
59618;DHT22;45437;51.458;-2.568;2022-07-23T04:12:32;18.60;69.50
59618;DHT22;45437;51.458;-2.568;2022-07-23T04:13:34;18.60;69.60
59618;DHT22;45437;51.458;-2.568;2022-07-23T04:14:36;18.60;69.70
59618;DHT22;45437;51.458;-2.568;2022-07-23T04:15:37;18.60;69.70
59618;DHT22;45437;51.458;-2.568;2022-07-23T04:16:39;18.60;69.70
59618;DHT22;45437;51.458;-2.568;2022-07-23T04:17:40;18.60;69.80
59618;DHT22;45437;51.458;-2.568;2022-07-23T04:18:41;18.60;69.70
59618;DHT22;45437;51.458;-2.568;2022-07-23T04:19:48;18.60;69.80
59618;DHT22;45437;51.458;-2.568;2022-07-23T04:20:53;18.60;69.90
59618;DHT22;45437;51.458;-2.568;2022-07-23T04:21:54;18.60;69.80
59618;DHT22;45437;51.458;-2.568;2022-07-23T04:22:55;18.60;69.80
59618;DHT22;45437;51.458;-2.568;2022-07-23T04:23:55;18.50;69.50
59618;DHT22;45437;51.458;-2.568;2022-07-23T04:24:56;18.50;69.60
59618;DHT22;45437;51.458;-2.568;2022-07-23T04:25:57;18.50;69.60
59618;DHT22;45437;51.458;-2.568;2022-07-23T04:26:59;18.50;69.40
59618;DHT22;45437;51.458;-2.568;2022-07-23T04:28:00;18.50;69.60
59618;DHT22;45437;51.458;-2.568;2022-07-23T04:29:00;18.50;69.60
59618;DHT22;45437;51.458;-2.568;2022-07-23T04:30:02;18.50;70.40
59618;DHT22;45437;51.458;-2.568;2022-07-23T04:31:03;18.50;69.70
59618;DHT22;45437;51.458;-2.568;2022-07-23T04:32:05;18.50;69.70
59618;DHT22;45437;51.458;-2.568;2022-07-23T04:33:06;18.50;69.70
59618;DHT22;45437;51.458;-2.568;2022-07-23T04:34:07;18.50;69.80
59618;DHT22;45437;51.458;-2.568;2022-07-23T04:35:08;18.50;69.60
59618;DHT22;45437;51.458;-2.568;2022-07-23T04:36:09;18.50;70.30
59618;DHT22;45437;51.458;-2.568;2022-07-23T04:37:10;18.50;69.60
59618;DHT22;45437;51.458;-2.568;2022-07-23T04:38:11;18.50;69.70
59618;DHT22;45437;51.458;-2.568;2022-07-23T04:39:12;18.50;69.60
59618;DHT22;45437;51.458;-2.568;2022-07-23T04:40:13;18.50;69.80
59618;DHT22;45437;51.458;-2.568;2022-07-23T04:41:14;18.50;69.90
59618;DHT22;45437;51.458;-2.568;2022-07-23T04:42:15;18.50;69.80
59618;DHT22;45437;51.458;-2.568;2022-07-23T04:43:16;18.50;69.80
59618;DHT22;45437;51.458;-2.568;2022-07-23T04:44:22;18.50;69.80
59618;DHT22;45437;51.458;-2.568;2022-07-23T04:45:23;18.50;69.80
59618;DHT22;45437;51.458;-2.568;2022-07-23T04:46:25;18.50;69.60
59618;DHT22;45437;51.458;-2.568;2022-07-23T04:47:26;18.50;69.70
59618;DHT22;45437;51.458;-2.568;2022-07-23T04:48:27;18.50;69.70
59618;DHT22;45437;51.458;-2.568;2022-07-23T04:49:34;18.50;69.90
59618;DHT22;45437;51.458;-2.568;2022-07-23T04:50:35;18.50;69.90
59618;DHT22;45437;51.458;-2.568;2022-07-23T04:51:38;18.50;69.80
59618;DHT22;45437;51.458;-2.568;2022-07-23T04:52:38;18.50;69.90
59618;DHT22;45437;51.458;-2.568;2022-07-23T04:53:39;18.50;70.00
59618;DHT22;45437;51.458;-2.568;2022-07-23T04:54:40;18.50;69.80
59618;DHT22;45437;51.458;-2.568;2022-07-23T04:55:41;18.50;69.90
59618;DHT22;45437;51.458;-2.568;2022-07-23T04:56:42;18.50;69.90
59618;DHT22;45437;51.458;-2.568;2022-07-23T04:57:43;18.50;70.00
59618;DHT22;45437;51.458;-2.568;2022-07-23T04:58:44;18.50;70.10
59618;DHT22;45437;51.458;-2.568;2022-07-23T04:59:45;18.50;70.10
59618;DHT22;45437;51.458;-2.568;2022-07-23T05:00:47;18.50;70.30
59618;DHT22;45437;51.458;-2.568;2022-07-23T05:01:48;18.50;70.40
59618;DHT22;45437;51.458;-2.568;2022-07-23T05:02:49;18.50;70.40
59618;DHT22;45437;51.458;-2.568;2022-07-23T05:03:49;18.50;70.40
59618;DHT22;45437;51.458;-2.568;2022-07-23T05:04:50;18.50;70.40
59618;DHT22;45437;51.458;-2.568;2022-07-23T05:05:51;18.50;70.40
59618;DHT22;45437;51.458;-2.568;2022-07-23T05:06:53;18.50;70.40
59618;DHT22;45437;51.458;-2.568;2022-07-23T05:07:57;18.50;70.30
59618;DHT22;45437;51.458;-2.568;2022-07-23T05:08:57;18.50;70.10
59618;DHT22;45437;51.458;-2.568;2022-07-23T05:09:58;18.50;70.00
59618;DHT22;45437;51.458;-2.568;2022-07-23T05:11:00;18.50;70.10
59618;DHT22;45437;51.458;-2.568;2022-07-23T05:12:03;18.50;70.20
59618;DHT22;45437;51.458;-2.568;2022-07-23T05:13:05;18.40;70.00
59618;DHT22;45437;51.458;-2.568;2022-07-23T05:14:06;18.40;70.00
59618;DHT22;45437;51.458;-2.568;2022-07-23T05:15:08;18.40;70.10
59618;DHT22;45437;51.458;-2.568;2022-07-23T05:16:09;18.40;70.20
59618;DHT22;45437;51.458;-2.568;2022-07-23T05:17:10;18.40;70.30
59618;DHT22;45437;51.458;-2.568;2022-07-23T05:18:11;18.50;70.30
59618;DHT22;45437;51.458;-2.568;2022-07-23T05:19:12;18.40;70.30
59618;DHT22;45437;51.458;-2.568;2022-07-23T05:20:14;18.50;70.40
59618;DHT22;45437;51.458;-2.568;2022-07-23T05:21:15;18.50;70.40
59618;DHT22;45437;51.458;-2.568;2022-07-23T05:22:16;18.40;70.30
59618;DHT22;45437;51.458;-2.568;2022-07-23T05:23:17;18.40;70.20
59618;DHT22;45437;51.458;-2.568;2022-07-23T05:24:18;18.40;71.10
59618;DHT22;45437;51.458;-2.568;2022-07-23T05:25:19;18.40;70.50
59618;DHT22;45437;51.458;-2.568;2022-07-23T05:26:20;18.50;70.50
59618;DHT22;45437;51.458;-2.568;2022-07-23T05:27:21;18.50;70.40
59618;DHT22;45437;51.458;-2.568;2022-07-23T05:28:22;18.50;70.30
59618;DHT22;45437;51.458;-2.568;2022-07-23T05:29:23;18.50;70.50
59618;DHT22;45437;51.458;-2.568;2022-07-23T05:30:24;18.40;70.30
59618;DHT22;45437;51.458;-2.568;2022-07-23T05:31:29;18.40;70.30
59618;DHT22;45437;51.458;-2.568;2022-07-23T05:32:32;18.50;70.50
59618;DHT22;45437;51.458;-2.568;2022-07-23T05:33:41;18.40;70.50
59618;DHT22;45437;51.458;-2.568;2022-07-23T05:34:42;18.40;70.70
59618;DHT22;45437;51.458;-2.568;2022-07-23T05:35:43;18.50;70.80
59618;DHT22;45437;51.458;-2.568;2022-07-23T05:37:13;18.40;70.70
59618;DHT22;45437;51.458;-2.568;2022-07-23T05:38:14;18.50;70.90
59618;DHT22;45437;51.458;-2.568;2022-07-23T05:39:15;18.50;70.90
59618;DHT22;45437;51.458;-2.568;2022-07-23T05:40:17;18.50;70.90
59618;DHT22;45437;51.458;-2.568;2022-07-23T05:41:18;18.50;70.90
59618;DHT22;45437;51.458;-2.568;2022-07-23T05:42:18;18.50;71.00
59618;DHT22;45437;51.458;-2.568;2022-07-23T05:43:20;18.50;71.10
59618;DHT22;45437;51.458;-2.568;2022-07-23T05:44:20;18.50;71.20
59618;DHT22;45437;51.458;-2.568;2022-07-23T05:45:21;18.50;71.30
59618;DHT22;45437;51.458;-2.568;2022-07-23T05:46:22;18.50;71.40
59618;DHT22;45437;51.458;-2.568;2022-07-23T05:47:28;18.50;71.40
59618;DHT22;45437;51.458;-2.568;2022-07-23T05:48:29;18.50;71.50
59618;DHT22;45437;51.458;-2.568;2022-07-23T05:49:38;18.50;71.60
59618;DHT22;45437;51.458;-2.568;2022-07-23T05:50:57;18.50;71.60
59618;DHT22;45437;51.458;-2.568;2022-07-23T05:52:06;18.50;71.60
59618;DHT22;45437;51.458;-2.568;2022-07-23T05:53:26;18.50;71.70
59618;DHT22;45437;51.458;-2.568;2022-07-23T05:54:52;18.50;71.90
59618;DHT22;45437;51.458;-2.568;2022-07-23T05:55:53;18.50;72.00
59618;DHT22;45437;51.458;-2.568;2022-07-23T05:56:54;18.50;72.00
59618;DHT22;45437;51.458;-2.568;2022-07-23T05:57:56;18.50;72.00
59618;DHT22;45437;51.458;-2.568;2022-07-23T05:58:57;18.50;72.00
59618;DHT22;45437;51.458;-2.568;2022-07-23T05:59:58;18.50;71.90
59618;DHT22;45437;51.458;-2.568;2022-07-23T06:01:00;18.50;71.90
59618;DHT22;45437;51.458;-2.568;2022-07-23T06:02:04;18.50;72.00
59618;DHT22;45437;51.458;-2.568;2022-07-23T06:03:05;18.50;71.80
59618;DHT22;45437;51.458;-2.568;2022-07-23T06:04:06;18.50;71.80
59618;DHT22;45437;51.458;-2.568;2022-07-23T06:05:13;18.40;72.30
59618;DHT22;45437;51.458;-2.568;2022-07-23T06:06:13;18.50;71.90
59618;DHT22;45437;51.458;-2.568;2022-07-23T06:07:14;18.50;71.90
59618;DHT22;45437;51.458;-2.568;2022-07-23T06:08:16;18.50;71.90
59618;DHT22;45437;51.458;-2.568;2022-07-23T06:09:17;18.40;71.90
59618;DHT22;45437;51.458;-2.568;2022-07-23T06:10:18;18.50;72.00
59618;DHT22;45437;51.458;-2.568;2022-07-23T06:11:19;18.50;71.90
59618;DHT22;45437;51.458;-2.568;2022-07-23T06:12:21;18.50;72.00
59618;DHT22;45437;51.458;-2.568;2022-07-23T06:13:22;18.50;72.00
59618;DHT22;45437;51.458;-2.568;2022-07-23T06:14:23;18.50;72.00
59618;DHT22;45437;51.458;-2.568;2022-07-23T06:15:28;18.50;71.90
59618;DHT22;45437;51.458;-2.568;2022-07-23T06:16:30;18.50;71.90
59618;DHT22;45437;51.458;-2.568;2022-07-23T06:17:31;18.50;71.90
59618;DHT22;45437;51.458;-2.568;2022-07-23T06:18:31;18.40;71.80
59618;DHT22;45437;51.458;-2.568;2022-07-23T06:19:32;18.40;71.90
59618;DHT22;45437;51.458;-2.568;2022-07-23T06:20:34;18.40;71.80
59618;DHT22;45437;51.458;-2.568;2022-07-23T06:21:35;18.40;71.80
59618;DHT22;45437;51.458;-2.568;2022-07-23T06:22:36;18.40;71.80
59618;DHT22;45437;51.458;-2.568;2022-07-23T06:23:37;18.40;71.90
59618;DHT22;45437;51.458;-2.568;2022-07-23T06:24:38;18.40;71.90